Time;durP1;ratioP1;P1;durP2;ratioP2;P2;SDS_P1;SDS_P2;PMS_P1;PMS_P2;Temp;Humidity;BMP_temperature;BMP_pressure;BME280_temperature;BME280_humidity;BME280_pressure;Samples;Min_cycle;Max_cycle;Signal;HPM_P1;HPM_P2
2021/03/23 00:01:37;;;;;;;16.40;6.10;;;4.80;99.90;;;;;;5046831;28;20210;-83
2021/03/23 00:04:05;;;;;;;13.57;5.90;;;4.80;99.90;;;;;;5049426;28;20244;-83
2021/03/23 00:06:32;;;;;;;11.40;5.70;;;4.80;99.90;;;;;;5048269;28;20201;-84
2021/03/23 00:09:01;;;;;;;11.70;5.80;;;4.80;99.90;;;;;;5049265;28;20214;-82
2021/03/23 00:11:29;;;;;;;12.30;5.87;;;4.80;99.90;;;;;;5048173;28;20198;-84
2021/03/23 00:13:56;;;;;;;14.13;5.80;;;4.80;99.90;;;;;;5048334;28;20302;-84
2021/03/23 00:16:26;;;;;;;15.10;6.77;;;4.80;99.90;;;;;;5056251;28;20224;-84
2021/03/23 00:18:53;;;;;;;11.50;5.03;;;4.90;99.90;;;;;;5073093;28;20205;-85
2021/03/23 00:21:21;;;;;;;16.23;5.40;;;4.90;99.90;;;;;;5072210;28;20201;-84
2021/03/23 00:23:49;;;;;;;12.47;5.70;;;4.90;99.90;;;;;;5070888;28;20628;-83
2021/03/23 00:26:16;;;;;;;11.90;6.20;;;5.00;99.90;;;;;;5052176;28;20526;-84
2021/03/23 00:28:48;;;;;;;13.43;5.70;;;5.00;99.90;;;;;;5052063;28;20294;-84
2021/03/23 00:31:15;;;;;;;20.47;6.83;;;5.00;99.90;;;;;;5050210;28;20293;-82
2021/03/23 00:33:41;;;;;;;15.70;6.90;;;5.00;99.90;;;;;;5051206;28;20528;-83
2021/03/23 00:36:09;;;;;;;13.20;6.83;;;5.10;99.90;;;;;;5053826;28;20579;-83
2021/03/23 00:38:37;;;;;;;12.60;6.80;;;5.10;99.90;;;;;;5070390;28;20201;-83
2021/03/23 00:41:06;;;;;;;14.13;7.90;;;5.10;99.90;;;;;;5064440;28;20221;-84
2021/03/23 00:43:33;;;;;;;13.50;7.10;;;5.10;99.90;;;;;;5051652;28;20206;-84
2021/03/23 00:45:59;;;;;;;13.40;7.30;;;5.20;99.90;;;;;;5050700;28;20259;-84
2021/03/23 00:48:26;;;;;;;17.80;7.63;;;5.20;99.90;;;;;;5050371;28;20206;-84
2021/03/23 00:50:52;;;;;;;14.33;7.40;;;5.20;99.90;;;;;;5052484;28;20205;-83
2021/03/23 00:53:18;;;;;;;11.70;7.40;;;5.20;99.90;;;;;;5050598;28;20201;-80
2021/03/23 00:55:44;;;;;;;15.40;8.03;;;5.20;99.90;;;;;;5048511;28;20303;-83
2021/03/23 00:58:11;;;;;;;17.20;8.03;;;5.30;99.90;;;;;;5049337;28;20205;-84
2021/03/23 01:00:38;;;;;;;13.53;7.77;;;5.30;99.90;;;;;;5048799;28;20283;-81
2021/03/23 01:03:04;;;;;;;13.30;7.13;;;5.30;99.90;;;;;;5048104;28;20232;-81
2021/03/23 01:05:33;;;;;;;16.77;7.67;;;5.30;99.90;;;;;;5048968;28;20601;-84
2021/03/23 01:07:59;;;;;;;17.47;8.63;;;5.30;99.90;;;;;;5050373;28;20213;-84
2021/03/23 01:10:28;;;;;;;18.73;8.27;;;5.30;99.90;;;;;;5047431;28;20206;-81
2021/03/23 01:12:55;;;;;;;18.80;8.60;;;5.30;99.90;;;;;;5046877;28;20202;-81
2021/03/23 01:15:29;;;;;;;17.30;8.63;;;5.30;99.90;;;;;;5048856;28;20209;-82
2021/03/23 01:17:55;;;;;;;16.03;8.43;;;5.30;99.90;;;;;;5048617;28;20267;-82
2021/03/23 01:20:23;;;;;;;18.23;8.03;;;5.40;99.90;;;;;;5048024;28;20279;-81
2021/03/23 01:22:49;;;;;;;13.93;7.30;;;5.40;99.90;;;;;;5048152;28;20206;-81
2021/03/23 01:25:17;;;;;;;13.33;6.97;;;5.40;99.90;;;;;;5049270;28;20214;-84
2021/03/23 01:27:43;;;;;;;16.33;7.80;;;5.40;99.90;;;;;;5048727;28;20222;-83
2021/03/23 01:30:12;;;;;;;13.47;6.90;;;5.30;99.90;;;;;;5049292;28;20198;-83
2021/03/23 01:32:39;;;;;;;18.07;6.73;;;5.30;99.90;;;;;;5049326;28;20202;-81
2021/03/23 01:35:06;;;;;;;10.87;6.67;;;5.30;99.90;;;;;;5049075;28;20210;-85
2021/03/23 01:37:33;;;;;;;12.40;6.10;;;5.30;99.90;;;;;;5048278;28;20205;-84
2021/03/23 01:39:59;;;;;;;13.13;5.80;;;5.20;99.90;;;;;;5050431;28;20221;-84
2021/03/23 01:42:39;;;;;;;11.33;6.47;;;5.20;99.90;;;;;;5049103;28;20204;-81
2021/03/23 01:45:29;;;;;;;12.83;6.30;;;5.10;99.90;;;;;;5047908;28;20864;-85
2021/03/23 01:47:59;;;;;;;10.20;6.10;;;5.10;99.90;;;;;;5049527;28;20213;-83
2021/03/23 01:50:27;;;;;;;11.70;6.27;;;5.10;99.90;;;;;;5053618;28;20267;-80
2021/03/23 01:52:59;;;;;;;14.23;6.73;;;5.00;99.90;;;;;;5068320;28;20202;-80
2021/03/23 01:55:26;;;;;;;13.03;7.67;;;5.00;99.90;;;;;;5067975;28;20232;-84
2021/03/23 01:57:52;;;;;;;16.13;7.43;;;5.00;99.90;;;;;;5069535;28;20209;-83
2021/03/23 02:00:20;;;;;;;13.90;7.50;;;4.90;99.90;;;;;;5049912;28;20244;-85
2021/03/23 02:02:47;;;;;;;15.87;8.17;;;4.90;99.90;;;;;;5046474;28;20216;-79
2021/03/23 02:05:24;;;;;;;15.83;7.17;;;4.90;99.90;;;;;;5048281;28;20667;-84
2021/03/23 02:07:52;;;;;;;14.77;7.27;;;4.90;99.90;;;;;;5047254;28;20221;-81
2021/03/23 02:10:19;;;;;;;19.00;7.40;;;4.80;99.90;;;;;;5045237;28;20501;-80
2021/03/23 02:12:47;;;;;;;16.27;8.03;;;4.80;99.90;;;;;;5046272;28;20562;-79
2021/03/23 02:15:15;;;;;;;14.83;8.53;;;4.80;99.90;;;;;;5047041;28;20201;-79
2021/03/23 02:17:41;;;;;;;15.70;7.77;;;4.80;99.90;;;;;;5045298;28;20657;-79
2021/03/23 02:20:12;;;;;;;15.17;8.30;;;4.70;99.90;;;;;;5045462;28;20276;-82
2021/03/23 02:22:41;;;;;;;17.43;8.87;;;4.70;99.90;;;;;;5046910;28;20259;-83
2021/03/23 02:25:11;;;;;;;14.57;7.60;;;4.70;99.90;;;;;;5048313;28;20190;-83
2021/03/23 02:27:37;;;;;;;24.03;10.53;;;4.60;99.90;;;;;;5059717;28;20281;-84
2021/03/23 02:30:07;;;;;;;17.57;10.63;;;4.60;99.90;;;;;;5066734;28;20201;-83
2021/03/23 02:32:33;;;;;;;19.80;10.57;;;4.70;99.90;;;;;;5066986;28;20205;-83
2021/03/23 02:34:59;;;;;;;24.83;12.73;;;4.70;99.90;;;;;;5050978;28;20198;-85
2021/03/23 02:37:25;;;;;;;25.77;12.10;;;4.70;99.90;;;;;;5044057;28;20209;-82
2021/03/23 02:39:52;;;;;;;22.67;13.63;;;4.70;99.90;;;;;;5043207;28;20241;-84
2021/03/23 02:42:19;;;;;;;21.20;11.30;;;4.70;99.90;;;;;;5046291;28;20217;-80
2021/03/23 02:44:46;;;;;;;23.83;11.87;;;4.70;99.90;;;;;;5046791;28;20209;-81
2021/03/23 02:47:14;;;;;;;27.23;12.57;;;4.60;99.90;;;;;;5047366;28;20205;-80
2021/03/23 02:49:41;;;;;;;28.57;12.53;;;4.60;99.90;;;;;;5065836;28;20239;-80
2021/03/23 02:52:08;;;;;;;27.73;14.33;;;4.60;99.90;;;;;;5066918;28;20220;-82
2021/03/23 02:54:35;;;;;;;29.17;15.13;;;4.60;99.90;;;;;;5064059;28;20216;-81
2021/03/23 02:57:02;;;;;;;26.00;13.03;;;4.60;99.90;;;;;;5047725;28;20238;-81
2021/03/23 02:59:28;;;;;;;27.70;13.70;;;4.50;99.90;;;;;;5046972;28;20233;-84
2021/03/23 03:01:55;;;;;;;21.70;13.20;;;4.60;99.90;;;;;;5047250;28;20198;-81
2021/03/23 03:04:21;;;;;;;24.30;12.27;;;4.50;99.90;;;;;;5047419;28;20217;-83
2021/03/23 03:06:47;;;;;;;19.27;12.17;;;4.50;99.90;;;;;;5047856;28;20201;-83
2021/03/23 03:09:14;;;;;;;24.00;13.30;;;4.50;99.90;;;;;;5049136;28;20220;-84
2021/03/23 03:11:40;;;;;;;26.10;14.50;;;4.50;99.90;;;;;;5065161;28;20575;-84
2021/03/23 03:14:07;;;;;;;21.87;12.53;;;4.50;99.90;;;;;;5067252;28;20527;-84
2021/03/23 03:16:34;;;;;;;31.00;13.80;;;4.50;99.90;;;;;;5066579;28;20221;-84
2021/03/23 03:19:00;;;;;;;29.17;13.77;;;4.60;99.90;;;;;;5066102;28;20262;-83
2021/03/23 03:21:27;;;;;;;30.97;12.57;;;4.60;99.90;;;;;;5047218;28;20226;-80
2021/03/23 03:23:53;;;;;;;26.53;13.67;;;4.60;99.90;;;;;;5046492;28;20244;-80
2021/03/23 03:26:20;;;;;;;27.50;12.07;;;4.60;99.90;;;;;;5046183;28;20206;-83
2021/03/23 03:28:52;;;;;;;24.87;11.90;;;4.60;99.90;;;;;;5048529;28;20216;-82
2021/03/23 03:31:21;;;;;;;19.87;10.03;;;4.60;99.90;;;;;;5046573;28;20198;-85
2021/03/23 03:33:47;;;;;;;22.97;11.50;;;4.60;99.90;;;;;;5045543;28;20206;-81
2021/03/23 03:36:13;;;;;;;20.33;10.90;;;4.50;99.90;;;;;;5045503;28;20202;-85
2021/03/23 03:38:39;;;;;;;31.37;14.20;;;4.50;99.90;;;;;;5047794;28;20260;-84
2021/03/23 03:41:06;;;;;;;27.73;12.33;;;4.50;99.90;;;;;;5047474;28;20237;-81
2021/03/23 03:43:33;;;;;;;17.50;10.87;;;4.50;99.90;;;;;;5050989;28;20216;-82
2021/03/23 03:46:01;;;;;;;18.83;10.53;;;4.40;99.90;;;;;;5066813;28;20201;-84
2021/03/23 03:48:28;;;;;;;24.30;10.70;;;4.40;99.90;;;;;;5063024;22;20250;-84
2021/03/23 03:50:55;;;;;;;22.27;10.90;;;4.40;99.90;;;;;;5030419;28;20197;-83
2021/03/23 03:53:22;;;;;;;21.87;12.00;;;4.40;99.90;;;;;;5030557;28;20202;-81
2021/03/23 03:55:49;;;;;;;25.10;12.03;;;4.30;99.90;;;;;;5043747;28;20217;-80
2021/03/23 03:58:16;;;;;;;21.80;11.17;;;4.30;99.90;;;;;;5050041;28;20209;-80
2021/03/23 04:00:43;;;;;;;21.57;11.33;;;4.30;99.90;;;;;;5049565;28;20213;-82
2021/03/23 04:03:15;;;;;;;24.53;11.83;;;4.30;99.90;;;;;;5033801;28;20214;-83
2021/03/23 04:05:45;;;;;;;28.03;13.87;;;4.20;99.90;;;;;;5029522;28;20211;-84
2021/03/23 04:08:13;;;;;;;22.13;12.13;;;4.20;99.90;;;;;;5029079;28;20206;-82
2021/03/23 04:10:41;;;;;;;30.43;13.43;;;4.20;99.90;;;;;;5030513;28;20217;-81
2021/03/23 04:13:07;;;;;;;31.33;13.30;;;4.20;99.90;;;;;;5030616;28;20206;-84
2021/03/23 04:15:36;;;;;;;29.27;13.70;;;4.30;99.90;;;;;;5026936;28;20213;-82
2021/03/23 04:18:03;;;;;;;33.63;15.97;;;4.30;99.90;;;;;;5010602;28;20203;-80
2021/03/23 04:20:30;;;;;;;28.63;14.90;;;4.40;99.90;;;;;;5021628;28;20227;-85
2021/03/23 04:22:57;;;;;;;27.67;14.47;;;4.40;99.90;;;;;;5011631;28;20206;-81
2021/03/23 04:25:25;;;;;;;32.37;14.37;;;4.50;99.90;;;;;;5010117;28;20196;-80
2021/03/23 04:27:52;;;;;;;29.73;15.47;;;4.50;99.90;;;;;;5010656;28;20204;-80
2021/03/23 04:30:20;;;;;;;29.73;14.60;;;4.50;99.90;;;;;;5010122;28;20199;-83
2021/03/23 04:32:48;;;;;;;29.63;16.60;;;4.60;99.90;;;;;;5010320;28;20226;-84
2021/03/23 04:35:25;;;;;;;27.93;15.00;;;4.60;99.90;;;;;;5008572;28;20215;-83
2021/03/23 04:37:52;;;;;;;28.33;14.37;;;4.70;99.90;;;;;;5027783;28;20222;-81
2021/03/23 04:40:19;;;;;;;35.27;16.97;;;4.70;99.90;;;;;;5029428;28;20534;-85
2021/03/23 04:42:46;;;;;;;31.27;17.70;;;4.70;99.90;;;;;;5033113;28;20198;-85
2021/03/23 04:45:13;;;;;;;29.30;16.13;;;4.70;99.90;;;;;;5027267;28;20512;-84
2021/03/23 04:47:40;;;;;;;28.03;16.37;;;4.80;99.90;;;;;;5013458;28;20249;-84
2021/03/23 04:50:07;;;;;;;32.40;17.87;;;4.80;99.90;;;;;;5011463;28;20187;-85
2021/03/23 04:52:33;;;;;;;37.57;18.50;;;4.80;99.90;;;;;;5025979;28;20218;-83
2021/03/23 04:55:00;;;;;;;40.53;20.37;;;4.90;99.90;;;;;;5028120;28;20198;-85
2021/03/23 04:57:27;;;;;;;33.67;18.30;;;4.90;99.90;;;;;;5011727;28;20204;-83
2021/03/23 04:59:53;;;;;;;38.27;18.50;;;4.90;99.90;;;;;;5007621;28;20235;-86
2021/03/23 05:02:19;;;;;;;35.20;19.13;;;5.00;99.90;;;;;;5005874;28;20597;-82
2021/03/23 05:04:46;;;;;;;40.00;19.43;;;5.00;99.90;;;;;;5007057;28;20702;-79
2021/03/23 05:07:12;;;;;;;36.53;19.33;;;5.10;99.90;;;;;;5008408;28;20600;-82
2021/03/23 05:09:38;;;;;;;39.13;20.43;;;5.10;99.90;;;;;;5008259;28;20203;-82
2021/03/23 05:12:06;;;;;;;37.37;19.87;;;5.10;99.90;;;;;;5007957;28;20192;-82
2021/03/23 05:14:33;;;;;;;39.17;20.03;;;5.10;99.90;;;;;;5008434;28;20207;-79
2021/03/23 05:17:00;;;;;;;42.20;20.47;;;5.10;99.90;;;;;;5008128;28;20223;-81
2021/03/23 05:19:26;;;;;;;36.90;19.67;;;5.10;99.90;;;;;;5007758;28;20254;-83
2021/03/23 05:21:52;;;;;;;40.07;21.63;;;5.10;99.90;;;;;;5009146;28;20215;-80
2021/03/23 05:24:18;;;;;;;39.73;20.73;;;5.10;99.90;;;;;;5007481;28;20219;-80
2021/03/23 05:26:45;;;;;;;39.33;20.00;;;5.20;99.90;;;;;;5007307;28;20215;-82
2021/03/23 05:29:11;;;;;;;36.70;20.40;;;5.20;99.90;;;;;;5008250;28;20215;-79
2021/03/23 05:31:38;;;;;;;38.27;20.43;;;5.20;99.90;;;;;;5007115;28;20215;-81
2021/03/23 05:34:05;;;;;;;41.97;21.47;;;5.30;99.90;;;;;;5007180;28;20480;-84
2021/03/23 05:36:32;;;;;;;38.80;21.00;;;5.30;99.90;;;;;;5008339;28;20214;-80
2021/03/23 05:38:59;;;;;;;37.77;20.03;;;5.30;99.90;;;;;;5008136;28;20203;-84
2021/03/23 05:41:33;;;;;;;42.80;21.90;;;5.30;99.90;;;;;;5006692;28;20251;-84
2021/03/23 05:44:10;;;;;;;44.17;22.13;;;5.40;99.90;;;;;;5008229;28;20211;-83
2021/03/23 05:46:39;;;;;;;37.63;21.30;;;5.40;99.90;;;;;;5007768;28;20223;-80
2021/03/23 05:49:30;;;;;;;41.43;21.60;;;5.40;99.90;;;;;;5023290;28;20262;-81
2021/03/23 05:52:03;;;;;;;37.97;22.30;;;5.40;99.90;;;;;;5020242;28;20211;-82
2021/03/23 05:54:36;;;;;;;43.77;22.83;;;5.50;99.90;;;;;;5007492;28;20207;-81
2021/03/23 05:57:07;;;;;;;48.07;23.97;;;5.50;99.90;;;;;;5007266;28;20207;-78
2021/03/23 05:59:43;;;;;;;45.63;22.60;;;5.60;99.90;;;;;;5007864;28;20198;-83
2021/03/23 06:02:20;;;;;;;41.57;23.53;;;5.60;99.90;;;;;;5006807;28;20210;-79
2021/03/23 06:04:52;;;;;;;54.33;27.00;;;5.70;99.90;;;;;;5007293;28;20188;-84
2021/03/23 06:07:20;;;;;;;53.73;25.20;;;5.70;99.90;;;;;;5007088;28;20579;-84
2021/03/23 06:09:46;;;;;;;56.30;26.83;;;5.70;99.90;;;;;;5005179;28;20255;-84
2021/03/23 06:12:24;;;;;;;65.43;28.03;;;5.80;99.90;;;;;;5008209;28;20218;-79
2021/03/23 06:15:00;;;;;;;49.20;25.93;;;5.80;99.90;;;;;;5009451;28;20195;-83
2021/03/23 06:17:37;;;;;;;56.17;27.20;;;5.90;99.90;;;;;;5009433;28;20273;-83
2021/03/23 06:20:32;;;;;;;49.00;27.27;;;5.90;99.90;;;;;;5009470;28;20218;-81
2021/03/23 06:23:26;;;;;;;56.00;29.60;;;5.90;99.90;;;;;;4998990;28;20587;-86
2021/03/23 06:26:02;;;;;;;66.87;30.37;;;6.00;99.90;;;;;;4997398;28;20199;-79
2021/03/23 06:28:41;;;;;;;60.60;29.77;;;6.00;99.90;;;;;;5009702;28;20207;-86
2021/03/23 06:31:20;;;;;;;52.17;27.50;;;6.10;99.90;;;;;;5009307;28;20302;-85
2021/03/23 06:33:50;;;;;;;50.03;28.70;;;6.10;99.90;;;;;;5010469;28;20199;-80
2021/03/23 06:36:22;;;;;;;55.90;29.67;;;6.10;99.90;;;;;;5026838;28;20194;-86
2021/03/23 06:38:49;;;;;;;54.53;30.07;;;6.10;99.90;;;;;;5028604;28;20486;-85
2021/03/23 06:41:22;;;;;;;58.67;29.83;;;6.10;99.90;;;;;;5020499;28;20256;-85
2021/03/23 06:43:51;;;;;;;58.63;29.00;;;6.10;99.90;;;;;;5008078;28;20211;-79
2021/03/23 06:46:26;;;;;;;61.97;32.87;;;6.20;99.90;;;;;;5007822;28;20211;-86
2021/03/23 06:49:06;;;;;;;62.27;32.40;;;6.20;99.90;;;;;;5008608;28;20257;-85
2021/03/23 06:51:33;;;;;;;66.60;34.07;;;6.30;99.90;;;;;;5007085;28;20631;-80
2021/03/23 06:54:16;;;;;;;63.30;32.70;;;6.30;99.90;;;;;;5008403;28;20652;-79
2021/03/23 06:56:44;;;;;;;62.93;33.70;;;6.40;99.90;;;;;;5007333;28;20195;-81
2021/03/23 06:59:14;;;;;;;59.40;32.20;;;6.40;99.90;;;;;;5005815;28;20211;-82
2021/03/23 07:01:41;;;;;;;62.80;32.83;;;6.40;99.90;;;;;;5008416;28;20793;-78
2021/03/23 07:04:26;;;;;;;67.93;34.83;;;6.50;99.90;;;;;;5025943;28;20210;-79
2021/03/23 07:07:15;;;;;;;62.57;34.17;;;6.50;99.90;;;;;;5023942;28;20645;-84
2021/03/23 07:09:50;;;;;;;57.77;34.90;;;6.60;99.90;;;;;;5015818;28;20207;-80
2021/03/23 07:12:17;;;;;;;63.80;37.40;;;6.60;99.90;;;;;;5008543;28;20510;-82
2021/03/23 07:14:46;;;;;;;66.57;36.83;;;6.70;99.90;;;;;;5020719;28;20595;-83
2021/03/23 07:17:25;;;;;;;62.30;36.90;;;6.70;99.90;;;;;;5026155;28;20222;-78
2021/03/23 07:19:59;;;;;;;76.43;37.83;;;6.70;99.90;;;;;;5025392;28;20606;-85
2021/03/23 07:22:42;;;;;;;70.00;37.77;;;6.70;99.90;;;;;;5025735;28;20199;-86
2021/03/23 07:25:33;;;;;;;68.10;40.33;;;6.80;99.90;;;;;;5006783;28;20218;-86
2021/03/23 07:28:26;;;;;;;64.80;39.00;;;6.90;99.90;;;;;;5004494;28;20234;-83
2021/03/23 07:31:01;;;;;;;71.70;40.47;;;6.90;99.90;;;;;;4997910;28;20203;-85
2021/03/23 07:33:40;;;;;;;64.20;38.83;;;7.00;99.90;;;;;;5003835;28;20552;-85
2021/03/23 07:36:10;;;;;;;60.60;36.47;;;7.00;99.90;;;;;;5004046;28;20599;-85
2021/03/23 07:38:42;;;;;;;65.90;39.47;;;7.00;99.90;;;;;;5005577;28;20203;-81
2021/03/23 07:41:18;;;;;;;64.83;38.23;;;7.10;99.90;;;;;;5004173;28;20951;-82
2021/03/23 07:43:48;;;;;;;64.67;38.70;;;7.10;99.90;;;;;;5004162;28;20199;-79
2021/03/23 07:46:19;;;;;;;56.80;36.20;;;7.20;99.90;;;;;;5004562;28;20207;-85
2021/03/23 07:48:50;;;;;;;63.00;36.97;;;7.20;99.90;;;;;;5003986;28;20234;-80
2021/03/23 07:51:28;;;;;;;59.73;38.13;;;7.20;99.90;;;;;;5015661;28;20191;-80
2021/03/23 07:54:03;;;;;;;52.70;34.37;;;7.30;99.90;;;;;;5022429;28;20293;-80
2021/03/23 07:56:43;;;;;;;58.23;36.17;;;7.30;99.90;;;;;;5002988;28;20562;-81
2021/03/23 07:59:22;;;;;;;58.13;35.97;;;7.40;99.90;;;;;;5004629;28;20202;-80
2021/03/23 08:01:53;;;;;;;54.83;36.23;;;7.40;99.90;;;;;;5004268;28;20219;-84
2021/03/23 08:04:40;;;;;;;53.00;35.23;;;7.40;99.90;;;;;;5007793;28;20210;-84
2021/03/23 08:07:18;;;;;;;54.17;34.47;;;7.40;99.90;;;;;;5006711;28;20183;-84
2021/03/23 08:10:09;;;;;;;51.53;33.40;;;7.50;99.90;;;;;;5004303;28;20187;-80
2021/03/23 08:13:12;;;;;;;50.50;32.57;;;7.50;99.90;;;;;;4976378;28;20526;-86
2021/03/23 08:16:02;;;;;;;54.57;33.23;;;7.60;99.90;;;;;;5011311;28;20249;-79
2021/03/23 08:19:02;;;;;;;48.80;32.43;;;7.60;99.90;;;;;;5022254;28;21018;-78
2021/03/23 08:22:05;;;;;;;48.97;31.33;;;7.70;99.90;;;;;;5014639;28;20226;-78
2021/03/23 08:24:51;;;;;;;45.90;30.63;;;7.70;99.90;;;;;;4903636;29;20210;-79
2021/03/23 08:27:35;;;;;;;48.70;32.17;;;7.70;99.90;;;;;;4991415;28;20211;-79
2021/03/23 08:30:10;;;;;;;49.97;32.60;;;7.70;99.90;;;;;;4998666;28;20774;-77
2021/03/23 08:32:42;;;;;;;51.80;34.03;;;7.80;99.90;;;;;;5002659;28;20210;-78
2021/03/23 08:35:26;;;;;;;46.23;28.37;;;7.80;99.90;;;;;;5012153;28;20198;-79
2021/03/23 08:38:07;;;;;;;49.60;29.83;;;7.80;99.90;;;;;;5009413;28;20222;-78
2021/03/23 08:40:41;;;;;;;45.40;27.50;;;7.90;99.90;;;;;;5006096;28;20215;-79
2021/03/23 08:43:12;;;;;;;45.93;29.63;;;7.90;99.90;;;;;;5007858;28;20203;-83
2021/03/23 08:45:46;;;;;;;50.83;29.43;;;8.00;99.90;;;;;;5012839;28;20200;-79
2021/03/23 08:48:25;;;;;;;47.60;29.83;;;8.20;99.90;;;;;;5013157;28;20256;-84
2021/03/23 08:50:57;;;;;;;49.40;30.03;;;8.50;99.90;;;;;;5016506;28;20209;-79
2021/03/23 08:53:45;;;;;;;52.70;32.07;;;8.80;99.90;;;;;;5028846;28;20987;-84
2021/03/23 08:56:12;;;;;;;51.57;32.57;;;9.30;99.90;;;;;;5026806;28;20594;-80
2021/03/23 08:58:49;;;;;;;48.07;30.50;;;9.60;99.90;;;;;;5025684;28;20234;-79
2021/03/23 09:01:37;;;;;;;40.53;29.70;;;9.90;99.90;;;;;;5010345;28;20215;-79
2021/03/23 09:04:34;;;;;;;41.07;27.27;;;10.30;99.90;;;;;;5005817;28;20578;-80
2021/03/23 09:07:02;;;;;;;40.53;27.00;;;10.60;99.90;;;;;;5006309;28;20202;-80
2021/03/23 09:09:36;;;;;;;41.77;27.50;;;10.90;99.90;;;;;;5011534;28;20310;-83
2021/03/23 09:12:13;;;;;;;40.00;27.77;;;11.20;99.90;;;;;;5012263;28;20191;-81
2021/03/23 09:15:17;;;;;;;38.07;26.13;;;11.40;99.90;;;;;;5030592;28;20599;-82
2021/03/23 09:18:02;;;;;;;39.53;27.73;;;11.60;99.90;;;;;;5027351;28;20690;-82
2021/03/23 09:20:54;;;;;;;40.70;26.87;;;11.70;99.90;;;;;;5011374;28;20231;-83
2021/03/23 09:23:47;;;;;;;37.90;27.17;;;11.80;99.90;;;;;;5011378;28;20211;-84
2021/03/23 09:26:47;;;;;;;39.40;27.60;;;11.80;99.90;;;;;;5010496;28;20261;-83
2021/03/23 09:29:36;;;;;;;39.33;26.70;;;11.90;99.90;;;;;;5016728;28;20202;-82
2021/03/23 09:32:06;;;;;;;38.57;27.50;;;12.00;99.90;;;;;;5030289;28;20236;-86
2021/03/23 09:35:13;;;;;;;36.57;26.70;;;12.00;99.90;;;;;;5012030;28;20203;-84
2021/03/23 09:37:44;;;;;;;35.43;26.10;;;12.00;99.90;;;;;;5010793;28;20306;-85
2021/03/23 09:40:52;;;;;;;36.70;26.03;;;12.20;99.90;;;;;;5010177;28;20230;-85
2021/03/23 09:43:36;;;;;;;36.73;26.17;;;12.20;99.90;;;;;;5025109;28;20246;-85
2021/03/23 09:46:35;;;;;;;40.83;27.50;;;12.30;99.90;;;;;;4993383;28;20290;-82
2021/03/23 09:49:15;;;;;;;40.57;26.93;;;12.40;99.90;;;;;;5008454;28;20250;-82
2021/03/23 09:51:46;;;;;;;40.10;27.27;;;12.70;99.90;;;;;;5024567;28;20213;-85
2021/03/23 09:54:25;;;;;;;41.33;28.67;;;12.80;99.90;;;;;;5014270;28;20203;-79
2021/03/23 09:56:53;;;;;;;45.00;30.10;;;13.00;99.90;;;;;;5011895;28;20216;-83
2021/03/23 09:59:23;;;;;;;38.00;26.87;;;13.00;99.90;;;;;;5025977;28;20258;-84
2021/03/23 10:01:58;;;;;;;43.30;30.20;;;13.10;99.90;;;;;;5028153;28;20957;-84
2021/03/23 10:04:27;;;;;;;44.90;30.20;;;13.30;99.90;;;;;;5024737;28;20222;-81
2021/03/23 10:06:55;;;;;;;45.60;29.07;;;13.40;99.90;;;;;;5005508;28;20294;-84
2021/03/23 10:09:27;;;;;;;43.10;28.40;;;13.50;99.90;;;;;;5025424;28;20288;-84
2021/03/23 10:11:54;;;;;;;35.47;24.60;;;13.50;99.90;;;;;;5025887;28;20198;-82
2021/03/23 10:14:32;;;;;;;40.17;27.13;;;13.60;99.90;;;;;;5014158;28;20210;-84
2021/03/23 10:17:11;;;;;;;36.87;26.07;;;13.70;99.90;;;;;;5007695;28;20266;-81
2021/03/23 10:19:41;;;;;;;36.40;24.50;;;13.90;99.90;;;;;;5005652;28;20258;-81
2021/03/23 10:22:14;;;;;;;34.17;22.90;;;14.10;99.90;;;;;;5006129;28;20235;-82
2021/03/23 10:24:44;;;;;;;33.80;23.07;;;14.20;99.90;;;;;;5017969;28;20971;-81
2021/03/23 10:27:16;;;;;;;36.33;23.77;;;14.10;99.90;;;;;;5025472;28;20669;-81
2021/03/23 10:30:02;;;;;;;31.83;23.03;;;14.10;99.90;;;;;;5024998;28;20942;-79
2021/03/23 10:32:37;;;;;;;33.30;24.00;;;14.10;99.90;;;;;;5016637;28;20215;-83
2021/03/23 10:35:07;;;;;;;34.97;23.33;;;14.20;99.90;;;;;;5005063;28;20607;-81
2021/03/23 10:37:34;;;;;;;32.10;22.83;;;14.10;99.90;;;;;;5005395;28;20219;-79
2021/03/23 10:40:00;;;;;;;31.43;22.73;;;14.10;99.90;;;;;;5006044;28;20294;-81
2021/03/23 10:42:28;;;;;;;32.42;22.65;;;14.10;99.90;;;;;;5005137;28;20716;-83
2021/03/23 10:45:21;;;;;;;34.57;23.77;;;14.20;99.90;;;;;;5006524;28;20298;-81
2021/03/23 10:48:00;;;;;;;31.00;22.17;;;14.20;99.90;;;;;;5005887;28;20227;-78
2021/03/23 10:50:28;;;;;;;31.67;21.93;;;14.10;99.90;;;;;;5004438;28;20199;-80
2021/03/23 10:53:10;;;;;;;35.17;23.10;;;14.10;99.90;;;;;;5005791;28;20211;-81
2021/03/23 10:55:41;;;;;;;32.95;23.52;;;14.10;99.90;;;;;;5006015;28;20207;-83
2021/03/23 10:58:23;;;;;;;34.65;22.92;;;14.10;99.90;;;;;;5005868;28;20243;-81
2021/03/23 11:01:08;;;;;;;39.30;23.47;;;14.10;99.90;;;;;;5006626;28;20238;-82
2021/03/23 11:03:36;;;;;;;32.17;22.17;;;14.00;99.90;;;;;;5006217;28;20888;-81
2021/03/23 11:06:04;;;;;;;35.10;21.93;;;14.00;99.90;;;;;;5015386;28;20214;-80
2021/03/23 11:08:31;;;;;;;33.03;22.07;;;14.00;99.90;;;;;;5026196;28;20293;-78
2021/03/23 11:10:59;;;;;;;31.10;22.07;;;14.20;99.90;;;;;;5026963;28;20208;-85
2021/03/23 11:13:26;;;;;;;27.20;20.33;;;14.40;99.90;;;;;;5019481;28;20718;-85
2021/03/23 11:15:56;;;;;;;35.23;21.93;;;14.50;99.90;;;;;;5007179;28;21080;-83
2021/03/23 11:18:28;;;;;;;29.23;20.40;;;14.50;99.90;;;;;;5028432;28;20509;-84
2021/03/23 11:20:57;;;;;;;32.47;20.37;;;14.50;99.90;;;;;;5029738;28;20215;-85
2021/03/23 11:23:39;;;;;;;31.77;20.83;;;14.60;99.90;;;;;;5027987;28;20206;-83
2021/03/23 11:26:08;;;;;;;30.70;20.00;;;14.50;99.90;;;;;;5005781;28;20211;-78
2021/03/23 11:28:35;;;;;;;26.13;17.90;;;14.40;99.90;;;;;;5005246;28;20296;-81
2021/03/23 11:31:02;;;;;;;29.73;19.07;;;14.40;99.90;;;;;;5006254;28;20218;-84
2021/03/23 11:33:30;;;;;;;27.42;18.05;;;14.40;99.90;;;;;;5003905;28;20312;-78
2021/03/23 11:35:57;;;;;;;29.77;18.57;;;14.50;99.90;;;;;;5005764;28;20213;-78
2021/03/23 11:38:24;;;;;;;26.80;17.37;;;14.50;99.90;;;;;;5004682;28;20219;-81
2021/03/23 11:40:52;;;;;;;25.53;16.40;;;14.60;99.90;;;;;;5010984;28;20507;-79
2021/03/23 11:43:24;;;;;;;27.27;16.57;;;14.50;99.90;;;;;;5025411;28;20199;-79
2021/03/23 11:45:52;;;;;;;25.98;14.93;;;14.50;99.90;;;;;;5014694;28;20227;-85
2021/03/23 11:48:20;;;;;;;28.33;15.90;;;14.60;99.90;;;;;;5017773;28;20257;-83
2021/03/23 11:50:50;;;;;;;23.23;15.70;;;14.60;99.90;;;;;;5025425;28;20202;-79
2021/03/23 11:53:18;;;;;;;20.77;14.60;;;14.70;99.90;;;;;;5024004;28;20205;-82
2021/03/23 11:55:46;;;;;;;25.45;14.60;;;14.60;99.90;;;;;;5024241;28;20187;-79
2021/03/23 11:58:14;;;;;;;22.60;13.67;;;14.70;99.90;;;;;;5023548;28;20206;-80
2021/03/23 12:00:41;;;;;;;22.13;14.47;;;14.70;99.90;;;;;;5004192;28;20277;-79
2021/03/23 12:03:11;;;;;;;21.70;14.70;;;14.70;99.90;;;;;;5003632;28;20207;-78
2021/03/23 12:05:38;;;;;;;25.83;16.10;;;14.50;99.90;;;;;;5002838;28;20223;-80
2021/03/23 12:08:33;;;;;;;28.03;17.60;;;14.30;99.90;;;;;;5002251;28;20231;-83
2021/03/23 12:11:07;;;;;;;27.23;16.97;;;14.30;99.90;;;;;;5005511;28;20203;-79
2021/03/23 12:13:45;;;;;;;29.20;17.90;;;14.20;99.90;;;;;;5007275;28;20199;-80
2021/03/23 12:16:18;;;;;;;28.20;16.70;;;14.30;99.90;;;;;;5008507;28;20230;-79
2021/03/23 12:18:56;;;;;;;23.00;16.30;;;14.40;99.90;;;;;;5008671;28;20483;-77
2021/03/23 12:21:24;;;;;;;33.87;18.60;;;14.30;99.90;;;;;;5008004;28;20230;-82
2021/03/23 12:23:52;;;;;;;29.63;17.77;;;14.30;99.90;;;;;;5007340;28;20257;-80
2021/03/23 12:26:19;;;;;;;29.43;17.87;;;14.40;99.90;;;;;;5009406;28;20190;-80
2021/03/23 12:28:45;;;;;;;27.90;18.37;;;14.20;99.90;;;;;;5007490;28;20192;-81
2021/03/23 12:31:12;;;;;;;26.20;18.17;;;14.10;99.90;;;;;;5006930;28;20203;-80
2021/03/23 12:33:39;;;;;;;27.17;19.07;;;14.10;99.90;;;;;;5019501;28;20199;-87
2021/03/23 12:36:06;;;;;;;31.37;20.10;;;14.00;99.90;;;;;;5022109;28;20214;-84
2021/03/23 12:38:34;;;;;;;29.53;17.87;;;14.00;99.90;;;;;;5009176;28;20203;-83
2021/03/23 12:41:01;;;;;;;28.40;19.57;;;13.90;99.90;;;;;;5011047;28;20230;-87
2021/03/23 12:43:27;;;;;;;30.10;19.03;;;14.00;99.90;;;;;;5007876;28;20219;-81
2021/03/23 12:45:57;;;;;;;29.13;19.40;;;13.90;99.90;;;;;;5010002;28;20195;-79
2021/03/23 12:48:23;;;;;;;28.30;17.93;;;13.90;99.90;;;;;;5007869;28;20245;-83
2021/03/23 12:50:50;;;;;;;27.57;18.47;;;13.90;99.90;;;;;;5010136;28;20210;-83
2021/03/23 12:53:19;;;;;;;27.03;18.73;;;13.90;99.90;;;;;;5010596;28;20558;-83
2021/03/23 12:55:49;;;;;;;28.30;19.53;;;13.90;99.90;;;;;;5009371;28;20367;-80
2021/03/23 12:58:20;;;;;;;29.47;19.57;;;13.90;99.90;;;;;;5009851;28;20199;-85
2021/03/23 13:00:46;;;;;;;31.17;20.00;;;13.90;99.90;;;;;;5022236;28;20226;-87